This is the latest recevied weather packets stored in our database for station/object OH2CHY-10. If no packets are shown the sender has not sent any weather packets the latest 10 day(s).
| Time | Temp. | Humidity | Pressure | Rain* | Wind** | Luminosity | Snow |
|---|---|---|---|---|---|---|---|
| 1778138076 | 15° C | 28% | 1016 hPa | - | - | - | - |
| 1778137176 | 12.78° C | 30% | 1015.9 hPa | - | - | - | - |
| 1778136276 | 11.67° C | 32% | 1015.9 hPa | - | - | - | - |
| 1778135375 | 11.67° C | 31% | 1015.9 hPa | - | - | - | - |
| 1778134475 | 10° C | 33% | 1015.9 hPa | - | - | - | - |
| 1778133575 | 8.89° C | 33% | 1015.8 hPa | - | - | - | - |
| 1778132675 | 8.33° C | 33% | 1015.8 hPa | - | - | - | - |
| 1778131775 | 8.89° C | 33% | 1015.8 hPa | - | - | - | - |
| 1778130875 | 9.44° C | 33% | 1015.8 hPa | - | - | - | - |
| 1778129975 | 11.11° C | 33% | 1015.8 hPa | - | - | - | - |
| 1778129075 | 9.44° C | 33% | 1015.8 hPa | - | - | - | - |
| 1778128175 | 9.44° C | 33% | 1015.8 hPa | - | - | - | - |
| 1778127275 | 11.11° C | 30% | 1015.9 hPa | - | - | - | - |
| 1778126375 | 8.33° C | 37% | 1015.8 hPa | - | - | - | - |
| 1778125475 | 7.22° C | 35% | 1015.8 hPa | - | - | - | - |
| 1778124575 | 9.44° C | 31% | 1015.7 hPa | - | - | - | - |
| 1778123675 | 12.22° C | 33% | 1015.6 hPa | - | - | - | - |
| 1778122775 | 7.78° C | 39% | 1015.5 hPa | - | - | - | - |
| 1778121874 | 3.89° C | 50% | 1015.5 hPa | - | - | - | - |
| 1778120974 | 1.11° C | 50% | 1015.6 hPa | - | - | - | - |
| 1778120074 | 0.56° C | 50% | 1015.6 hPa | - | - | - | - |
| 1778119174 | 0.56° C | 50% | 1015.6 hPa | - | - | - | - |
| 1778118274 | 0.56° C | 49% | 1015.5 hPa | - | - | - | - |
| 1778117374 | 0.56° C | 49% | 1015.5 hPa | - | - | - | - |
| 1778116474 | 1.11° C | 49% | 1015.5 hPa | - | - | - | - |
* Rain since midnight (hover to see other rain measurements)
** Current wind speed in m/s (hover to see current wind gust speed)